Terminal Aerodrome Forecast
Issued by NWS Northern Indiana

Home | Current Version | Previous Version | Graphics & Text | Print | Product List | Glossary On
Versions: 1 2 3 4 5 6 7 8 9 10 11 12 13 14 15 16
598
FTUS43 KIWX 030545
TAFFWA
TAF
KFWA 030545Z 0306/0406 20012KT 5SM BR BKN020 OVC035
     FM030900 22007KT 5SM BR BKN015 OVC025
     FM031600 23020G30KT P6SM -SHSN OVC025
     FM032100 25018G25KT P6SM OVC025=

USA.gov is the U.S. government's official web portal to all federal, state and local government web resources and services.